Time;durP1;ratioP1;P1;durP2;ratioP2;P2;SDS_P1;SDS_P2;PMS_P1;PMS_P2;Temp;Humidity;BMP_temperature;BMP_pressure;BME280_temperature;BME280_humidity;BME280_pressure;Samples;Min_cycle;Max_cycle;Signal;HPM_P1;HPM_P2
2023/06/01 00:01:53;;;;;;;;;;;;;;;14.35;87.42;102310.34;5069491;28;20112;-37
2023/06/01 00:04:19;;;;;;;6.73;4.30;;;;;;;14.20;90.65;102314.41;5069612;28;19912;-37
2023/06/01 00:06:44;;;;;;;6.40;4.93;;;;;;;14.04;93.26;102315.75;5069919;28;20342;-37
2023/06/01 00:09:09;;;;;;;;;;;;;;;14.18;89.81;102320.91;5069964;28;20426;-40
2023/06/01 00:11:35;;;;;;;8.73;5.00;;;;;;;13.84;92.99;102310.44;5060813;28;19946;-37
2023/06/01 00:14:01;;;;;;;7.47;4.93;;;;;;;13.91;93.00;102313.97;5055988;28;20279;-37
2023/06/01 00:16:26;;;;;;;;;;;;;;;13.97;90.77;102313.09;5057555;28;20471;-37
2023/06/01 00:18:56;;;;;;;7.22;4.80;;;;;;;13.78;93.20;102312.13;5055835;28;19939;-36
2023/06/01 00:21:22;;;;;;;5.47;4.82;;;;;;;13.70;93.43;102300.66;5056442;28;20079;-36
2023/06/01 00:23:47;;;;;;;8.20;5.35;;;;;;;13.72;94.08;102309.47;5056050;28;20432;-37
2023/06/01 00:26:13;;;;;;;;;;;;;;;13.93;90.43;102316.47;5056799;28;20025;-37
2023/06/01 00:28:38;;;;;;;9.50;5.15;;;;;;;13.77;92.71;102312.38;5056035;28;20010;-36
2023/06/01 00:31:04;;;;;;;9.07;5.28;;;;;;;13.79;92.08;102310.25;5056595;28;20040;-37
2023/06/01 00:33:30;;;;;;;6.93;5.28;;;;;;;13.58;92.02;102295.91;5071422;28;20017;-37
2023/06/01 00:35:55;;;;;;;10.68;6.10;;;;;;;13.48;93.47;102309.13;5056435;28;20446;-37
2023/06/01 00:38:20;;;;;;;;;;;;;;;13.64;90.75;102307.81;5055978;28;20124;-37
2023/06/01 00:40:49;;;;;;;10.13;6.10;;;;;;;13.27;93.71;102312.09;5055738;28;19912;-36
2023/06/01 00:43:15;;;;;;;9.70;6.00;;;;;;;13.26;94.29;102305.84;5055979;28;20721;-37
2023/06/01 00:45:40;;;;;;;;;;;;;;;13.39;92.27;102310.41;5056480;28;20056;-37
2023/06/01 00:48:06;;;;;;;8.00;5.77;;;;;;;13.18;94.92;102308.78;5055626;28;19908;-37
2023/06/01 00:50:32;;;;;;;;;;;;;;;13.27;93.09;102301.25;5056615;28;20032;-37
2023/06/01 00:52:59;;;;;;;9.35;6.50;;;;;;;12.86;96.13;102305.06;5055243;28;19913;-36
2023/06/01 00:55:26;;;;;;;7.93;6.10;;;;;;;12.85;97.22;102306.94;5055492;28;20083;-36
2023/06/01 00:57:54;;;;;;;8.93;6.20;;;;;;;13.01;97.15;102302.94;5055369;28;20094;-36
2023/06/01 01:00:20;;;;;;;9.90;6.53;;;;;;;12.98;96.67;102307.97;5055464;28;20071;-36
2023/06/01 01:02:48;;;;;;;;;;;;;;;13.14;93.42;102305.66;5055765;28;20033;-36
2023/06/01 01:05:15;;;;;;;10.13;7.05;;;;;;;13.00;95.87;102306.72;5056147;28;19916;-36
2023/06/01 01:07:41;;;;;;;9.32;6.75;;;;;;;12.89;96.71;102310.91;5055859;28;20428;-37
2023/06/01 01:10:13;;;;;;;;;;;;;;;13.03;93.21;102310.88;5056189;28;20041;-36
2023/06/01 01:13:02;;;;;;;10.38;6.95;;;;;;;12.92;95.90;102309.66;5055197;28;19908;-37
2023/06/01 01:15:46;;;;;;;10.02;7.38;;;;;;;12.71;97.56;102321.56;5055972;28;20033;-37
2023/06/01 01:18:19;;;;;;;9.15;7.43;;;;;;;12.51;98.30;102321.56;5055101;28;20028;-38
2023/06/01 01:20:57;;;;;;;11.13;7.72;;;;;;;12.44;99.10;102328.84;5054949;28;20120;-37
2023/06/01 01:23:48;;;;;;;11.18;8.00;;;;;;;12.38;99.73;102326.97;5054358;28;20053;-36
2023/06/01 01:26:47;;;;;;;10.15;7.85;;;;;;;12.37;99.48;102318.00;5054942;28;20061;-36
2023/06/01 01:29:15;;;;;;;9.60;7.97;;;;;;;12.29;99.44;102320.91;5054890;28;20529;-36
2023/06/01 01:31:41;;;;;;;14.25;9.07;;;;;;;12.28;100.00;102323.84;5055572;28;20029;-37
2023/06/01 01:34:08;;;;;;;11.93;8.65;;;;;;;12.23;100.00;102320.91;5054377;28;20060;-37
2023/06/01 01:36:35;;;;;;;10.90;8.98;;;;;;;12.23;99.48;102323.63;5055037;28;20021;-36
2023/06/01 01:39:01;;;;;;;11.95;8.85;;;;;;;12.11;100.00;102324.22;5054596;28;20033;-37
2023/06/01 01:41:27;;;;;;;12.65;9.02;;;;;;;12.11;100.00;102326.94;5055186;28;20043;-38
2023/06/01 01:43:53;;;;;;;14.63;8.65;;;;;;;12.16;99.96;102325.50;5054586;28;20025;-37
2023/06/01 01:46:26;;;;;;;13.98;8.52;;;;;;;12.00;100.00;102327.50;5054845;28;20419;-36
2023/06/01 01:49:06;;;;;;;9.40;7.85;;;;;;;12.03;100.00;102327.13;5054807;28;20095;-36
2023/06/01 01:51:46;;;;;;;11.30;8.65;;;;;;;11.94;100.00;102322.09;5054697;28;20082;-36
2023/06/01 01:54:13;;;;;;;9.75;8.73;;;;;;;11.78;100.00;102326.81;5054943;28;20367;-37
2023/06/01 01:56:39;;;;;;;11.85;8.15;;;;;;;11.84;100.00;102330.59;5054339;28;20033;-37
2023/06/01 01:59:05;;;;;;;12.60;8.55;;;;;;;11.81;100.00;102336.41;5054133;28;20051;-37
2023/06/01 02:01:32;;;;;;;12.68;8.00;;;;;;;11.71;100.00;102330.50;5054566;28;20103;-37
2023/06/01 02:04:07;;;;;;;9.88;7.90;;;;;;;11.64;100.00;102327.78;5054476;28;20418;-37
2023/06/01 02:06:32;;;;;;;10.25;7.80;;;;;;;11.71;100.00;102338.63;5053868;28;20033;-37
2023/06/01 02:08:58;;;;;;;8.90;7.13;;;;;;;11.74;100.00;102338.25;5054135;28;20029;-37
2023/06/01 02:11:23;;;;;;;9.77;7.45;;;;;;;11.75;100.00;102323.66;5054452;28;20466;-37
2023/06/01 02:13:48;;;;;;;9.82;7.13;;;;;;;11.76;100.00;102319.91;5053777;28;20052;-37
2023/06/01 02:16:15;;;;;;;7.30;6.57;;;;;;;11.70;100.00;102326.97;5054614;28;20036;-37
2023/06/01 02:18:45;;;;;;;10.73;6.60;;;;;;;11.70;100.00;102326.13;5053627;28;20021;-37
2023/06/01 02:21:12;;;;;;;9.60;6.63;;;;;;;11.60;100.00;102327.34;5054470;28;20029;-37
2023/06/01 02:23:39;;;;;;;9.50;6.40;;;;;;;11.68;100.00;102328.22;5053611;28;20189;-37
2023/06/01 02:26:05;;;;;;;7.63;5.82;;;;;;;11.70;100.00;102328.84;5069070;28;20439;-37
2023/06/01 02:28:30;;;;;;;;;;;;;;;11.82;99.54;102324.56;5053919;28;20067;-36
2023/06/01 02:30:56;;;;;;;8.73;5.57;;;;;;;11.72;100.00;102321.38;5053533;28;19917;-36
2023/06/01 02:33:21;;;;;;;9.93;6.47;;;;;;;11.57;100.00;102325.06;5053735;28;20259;-36
2023/06/01 02:35:46;;;;;;;8.52;6.07;;;;;;;11.65;100.00;102317.78;5053846;28;20032;-36
2023/06/01 02:38:14;;;;;;;5.97;5.40;;;;;;;11.57;100.00;102324.22;5053678;28;20138;-36
2023/06/01 02:40:40;;;;;;;7.30;5.38;;;;;;;11.42;100.00;102318.94;5053249;28;20279;-37
2023/06/01 02:43:05;;;;;;;11.13;6.05;;;;;;;11.51;100.00;102325.00;5053545;28;20036;-37
2023/06/01 02:45:30;;;;;;;7.13;5.67;;;;;;;11.35;100.00;102299.94;5053618;28;20032;-37
2023/06/01 02:47:56;;;;;;;7.87;5.43;;;;;;;11.58;100.00;102317.75;5053202;28;20033;-37
2023/06/01 02:50:21;;;;;;;8.10;5.37;;;;;;;11.53;100.00;102317.53;5053867;28;20331;-37
2023/06/01 02:52:47;;;;;;;7.87;5.00;;;;;;;11.67;100.00;102316.56;5053454;28;20063;-37
2023/06/01 02:55:12;;;;;;;7.88;5.15;;;;;;;11.67;100.00;102323.84;5053528;28;20282;-37
2023/06/01 02:57:37;;;;;;;10.85;6.10;;;;;;;11.72;100.00;102319.50;5054038;28;20036;-37
2023/06/01 03:00:04;;;;;;;7.60;5.43;;;;;;;11.64;100.00;102332.38;5053322;28;20098;-37
2023/06/01 03:02:29;;;;;;;7.25;5.60;;;;;;;11.52;100.00;102332.13;5053659;28;20029;-37
2023/06/01 03:04:55;;;;;;;9.48;5.60;;;;;;;11.51;100.00;102330.44;5053086;28;20546;-37
2023/06/01 03:07:20;;;;;;;8.97;5.60;;;;;;;11.43;100.00;102326.03;5052745;28;20472;-37
2023/06/01 03:09:45;;;;;;;8.30;5.57;;;;;;;11.34;100.00;102330.78;5053407;28;20299;-37
2023/06/01 03:12:11;;;;;;;7.50;5.27;;;;;;;11.41;100.00;102335.38;5053887;28;20159;-37
2023/06/01 03:14:36;;;;;;;9.80;6.13;;;;;;;11.16;100.00;102329.59;5053064;28;20329;-36
2023/06/01 03:17:01;;;;;;;8.57;5.82;;;;;;;11.17;100.00;102328.56;5053369;28;20036;-36
2023/06/01 03:19:27;;;;;;;8.10;6.15;;;;;;;11.22;100.00;102335.06;5053157;28;20094;-37
2023/06/01 03:21:52;;;;;;;11.65;6.75;;;;;;;11.24;100.00;102333.00;5053057;28;20021;-37
2023/06/01 03:24:18;;;;;;;7.68;5.60;;;;;;;11.29;100.00;102333.25;5052880;28;20469;-36
2023/06/01 03:26:43;;;;;;;6.50;5.20;;;;;;;11.29;100.00;102329.69;5053202;28;20036;-36
2023/06/01 03:29:08;;;;;;;7.90;5.73;;;;;;;11.31;100.00;102328.44;5053228;28;20036;-36
2023/06/01 03:31:34;;;;;;;7.80;5.23;;;;;;;11.39;100.00;102330.16;5053469;28;20021;-36
2023/06/01 03:34:00;;;;;;;8.20;5.35;;;;;;;11.34;100.00;102333.47;5053636;28;20278;-36
2023/06/01 03:36:26;;;;;;;7.60;5.15;;;;;;;11.31;100.00;102311.38;5053663;28;20025;-36
2023/06/01 03:38:51;;;;;;;10.18;5.60;;;;;;;11.46;100.00;102322.91;5052627;28;20035;-36
2023/06/01 03:41:16;;;;;;;8.85;6.07;;;;;;;11.35;100.00;102327.03;5053138;28;20031;-36
2023/06/01 03:43:41;;;;;;;5.80;5.10;;;;;;;11.42;100.00;102329.78;5053072;28;20110;-36
2023/06/01 03:46:07;;;;;;;5.93;5.33;;;;;;;11.31;100.00;102317.63;5054536;28;20029;-36
2023/06/01 03:48:32;;;;;;;7.95;5.20;;;;;;;11.33;100.00;102315.56;5057379;28;20279;-36
2023/06/01 03:50:58;;;;;;;6.50;5.13;;;;;;;11.38;100.00;102317.66;5057124;28;20107;-36
2023/06/01 03:53:25;;;;;;;9.13;4.88;;;;;;;11.30;100.00;102334.06;5056926;28;20044;-36
2023/06/01 03:55:50;;;;;;;8.57;5.40;;;;;;;11.12;100.00;102329.16;5057470;28;20028;-36
2023/06/01 03:58:18;;;;;;;6.35;4.55;;;;;;;11.29;100.00;102335.13;5056580;28;20036;-36
2023/06/01 04:00:46;;;;;;;6.82;4.90;;;;;;;11.24;100.00;102333.00;5057373;28;20469;-36
2023/06/01 04:03:12;;;;;;;6.05;4.95;;;;;;;11.26;100.00;102336.34;5056485;28;20025;-37
2023/06/01 04:05:37;;;;;;;7.65;5.47;;;;;;;11.28;100.00;102336.16;5056492;28;20037;-37
2023/06/01 04:08:03;;;;;;;9.23;5.53;;;;;;;11.29;100.00;102330.53;5056402;28;20032;-37
2023/06/01 04:10:28;;;;;;;8.43;5.65;;;;;;;11.33;100.00;102339.94;5057295;28;20060;-37
2023/06/01 04:12:53;;;;;;;8.83;5.47;;;;;;;11.38;100.00;102342.03;5056659;28;20033;-37
2023/06/01 04:15:22;;;;;;;8.55;5.10;;;;;;;11.33;100.00;102328.28;5056856;28;20025;-37
2023/06/01 04:17:48;;;;;;;7.85;5.55;;;;;;;11.23;100.00;102338.63;5056482;28;20447;-37
2023/06/01 04:20:15;;;;;;;8.00;5.65;;;;;;;11.14;100.00;102326.28;5056218;28;20112;-37
2023/06/01 04:22:41;;;;;;;7.10;5.55;;;;;;;11.17;100.00;102331.28;5056103;28;20027;-36
2023/06/01 04:25:08;;;;;;;;;;;;;;;11.30;99.88;102329.50;5055629;28;20396;-37
2023/06/01 04:27:36;;;;;;;8.90;6.05;;;;;;;11.34;100.00;102335.34;5056703;28;19915;-36
2023/06/01 04:30:07;;;;;;;8.32;5.90;;;;;;;11.32;100.00;102338.28;5055959;28;20075;-36
2023/06/01 04:32:34;;;;;;;7.65;5.43;;;;;;;11.37;100.00;102340.38;5055660;28;20535;-36
2023/06/01 04:35:04;;;;;;;7.32;5.38;;;;;;;11.47;100.00;102342.72;5055912;28;20021;-36
2023/06/01 04:37:33;;;;;;;10.38;5.65;;;;;;;11.43;99.31;102339.56;5056366;28;20027;-37
2023/06/01 04:39:59;;;;;;;7.90;5.63;;;;;;;11.43;99.55;102336.88;5055704;28;20032;-41
2023/06/01 04:42:25;;;;;;;8.38;5.60;;;;;;;11.42;99.00;102345.16;5056353;28;20029;-37
2023/06/01 04:44:51;;;;;;;11.93;6.22;;;;;;;11.37;99.40;102343.09;5056275;28;20021;-37
2023/06/01 04:47:17;;;;;;;10.73;5.15;;;;;;;11.36;98.95;102352.22;5056238;28;20146;-37
2023/06/01 04:49:43;;;;;;;8.52;6.00;;;;;;;11.44;99.60;102346.66;5056172;28;20141;-37
2023/06/01 04:52:09;;;;;;;;;;;;;;;11.64;97.76;102354.06;5056351;28;20029;-37
2023/06/01 04:54:36;;;;;;;7.75;5.85;;;;;;;11.53;98.70;102347.34;5055538;28;19915;-37
2023/06/01 04:57:01;;;;;;;;;;;;;;;11.78;97.46;102355.78;5055853;28;20029;-37
2023/06/01 04:59:27;;;;;;;8.00;5.20;;;;;;;11.72;98.23;102356.59;5055713;28;19923;-37
2023/06/01 05:01:52;;;;;;;10.80;6.18;;;;;;;11.72;98.20;102351.19;5056019;28;20063;-37
2023/06/01 05:04:18;;;;;;;7.77;5.40;;;;;;;11.71;97.86;102350.34;5055397;28;20029;-37
2023/06/01 05:06:43;;;;;;;6.37;5.00;;;;;;;11.71;98.71;102344.94;5055680;28;20339;-37
2023/06/01 05:09:08;;;;;;;7.30;5.40;;;;;;;11.78;98.31;102344.94;5056130;28;20029;-37
2023/06/01 05:11:34;;;;;;;8.25;5.63;;;;;;;11.85;98.17;102334.97;5054996;28;20108;-37
2023/06/01 05:14:02;;;;;;;9.20;5.53;;;;;;;11.88;97.18;102334.59;5054905;28;20040;-37
2023/06/01 05:16:27;;;;;;;8.20;5.50;;;;;;;12.03;95.82;102337.13;5055133;28;20044;-37
2023/06/01 05:18:55;;;;;;;6.85;5.13;;;;;;;12.00;95.64;102332.94;5054718;28;20033;-37
2023/06/01 05:21:20;;;;;;;8.00;5.72;;;;;;;11.96;95.29;102331.69;5055332;28;20054;-37
2023/06/01 05:23:45;;;;;;;6.13;5.40;;;;;;;11.98;95.64;102335.03;5054997;28;20064;-36
2023/06/01 05:26:11;;;;;;;9.93;5.40;;;;;;;11.97;95.11;102336.06;5054973;28;20037;-37
2023/06/01 05:28:36;;;;;;;8.75;5.60;;;;;;;12.06;94.71;102332.16;5053616;28;20072;-37
2023/06/01 05:31:02;;;;;;;12.80;6.85;;;;;;;12.06;95.44;102334.03;5055389;28;20039;-37
2023/06/01 05:33:27;;;;;;;8.45;5.63;;;;;;;11.98;93.85;102329.59;5054821;28;20044;-36
2023/06/01 05:35:53;;;;;;;11.27;6.57;;;;;;;11.75;94.18;102318.22;5054821;28;20048;-36
2023/06/01 05:38:18;;;;;;;9.97;6.17;;;;;;;11.84;95.00;102336.84;5054676;28;20267;-37
2023/06/01 05:40:44;;;;;;;10.90;6.05;;;;;;;11.93;95.01;102332.09;5055618;28;20021;-37
2023/06/01 05:43:10;;;;;;;;;;;;;;;12.21;94.17;102344.69;5054794;28;20079;-37
2023/06/01 05:45:35;;;;;;;7.05;4.95;;;;;;;12.20;93.79;102343.88;5055127;28;19952;-37
2023/06/01 05:48:02;;;;;;;8.73;5.83;;;;;;;12.28;94.38;102343.66;5054614;28;20025;-36
2023/06/01 05:50:27;;;;;;;8.80;6.30;;;;;;;12.34;93.76;102342.81;5054862;28;20258;-36
2023/06/01 05:52:53;;;;;;;7.28;5.65;;;;;;;12.40;93.07;102341.19;5054354;28;20448;-36
2023/06/01 05:55:18;;;;;;;11.35;6.05;;;;;;;12.36;92.83;102345.34;5054611;28;20025;-36
2023/06/01 05:57:45;;;;;;;9.35;5.97;;;;;;;12.34;92.30;102344.69;5054253;28;20068;-36
2023/06/01 06:00:15;;;;;;;10.38;6.05;;;;;;;12.05;93.68;102335.03;5054576;28;20045;-37
2023/06/01 06:02:42;;;;;;;8.95;5.90;;;;;;;12.26;93.79;102342.19;5054200;28;20359;-37
2023/06/01 06:05:09;;;;;;;8.18;6.00;;;;;;;12.33;92.87;102348.47;5054446;28;20033;-37
2023/06/01 06:07:34;;;;;;;7.63;5.65;;;;;;;12.59;93.39;102343.09;5054156;28;20067;-37
2023/06/01 06:10:00;;;;;;;10.20;6.07;;;;;;;12.80;91.91;102342.03;5053860;28;20033;-36
2023/06/01 06:12:25;;;;;;;8.57;5.93;;;;;;;12.88;90.87;102343.69;5054581;28;20075;-37
2023/06/01 06:14:51;;;;;;;10.63;5.55;;;;;;;12.87;90.46;102348.28;5053730;28;20025;-37
2023/06/01 06:17:16;;;;;;;26.25;7.68;;;;;;;12.68;90.30;102340.97;5054005;28;20036;-36
2023/06/01 06:19:44;;;;;;;;;;;;;;;12.99;90.21;102350.38;5054785;28;20029;-37
2023/06/01 06:22:10;;;;;;;13.70;6.18;;;;;;;12.75;89.88;102332.84;5054175;28;19912;-36
2023/06/01 06:24:35;;;;;;;;;;;;;;;12.94;88.86;102347.47;5053830;28;20115;-36
2023/06/01 06:27:01;;;;;;;8.63;5.28;;;;;;;12.86;88.34;102349.34;5054594;28;19912;-37
2023/06/01 06:29:27;;;;;;;8.93;5.20;;;;;;;12.83;88.21;102348.91;5054236;28;20377;-36
2023/06/01 06:31:52;;;;;;;;;;;;;;;12.95;88.31;102347.25;5054186;28;20040;-36
2023/06/01 06:34:17;;;;;;;12.97;5.90;;;;;;;12.71;87.94;102340.56;5053711;28;20353;-36
2023/06/01 06:36:43;;;;;;;94.82;16.45;;;;;;;12.72;89.27;102346.81;5054502;28;20664;-36
2023/06/01 06:39:08;;;;;;;;;;;;;;;12.91;88.34;102348.69;5053996;28;20020;-36
2023/06/01 06:41:34;;;;;;;18.80;7.73;;;;;;;12.73;88.27;102333.03;5054415;28;20300;-37
2023/06/01 06:43:59;;;;;;;16.13;6.80;;;;;;;12.82;87.89;102336.38;5053557;28;20271;-36
2023/06/01 06:46:24;;;;;;;62.30;10.52;;;;;;;12.95;87.29;102351.84;5054146;28;20033;-37
2023/06/01 06:48:50;;;;;;;26.27;7.55;;;;;;;13.02;87.69;102348.06;5053532;28;20040;-37
2023/06/01 06:51:16;;;;;;;;;;;;;;;13.13;87.03;102362.91;5053973;28;20036;-36
2023/06/01 06:53:41;;;;;;;46.22;11.55;;;;;;;12.88;87.37;102340.97;5054314;28;19913;-36
2023/06/01 06:56:06;;;;;;;41.00;12.07;;;;;;;12.87;87.86;102350.16;5053215;28;20052;-37
2023/06/01 06:58:32;;;;;;;14.63;7.97;;;;;;;12.77;87.71;102357.91;5053757;28;20061;-37
2023/06/01 07:00:57;;;;;;;;;;;;;;;12.92;87.56;102363.94;5052141;28;20480;-37
2023/06/01 07:03:22;;;;;;;12.55;6.32;;;;;;;12.87;88.65;102361.03;5053622;28;20372;-37
2023/06/01 07:05:48;;;;;;;9.30;5.55;;;;;;;13.07;87.71;102361.00;5053410;28;20032;-37
2023/06/01 07:08:14;;;;;;;12.07;6.13;;;;;;;13.15;86.23;102352.66;5053327;28;20036;-37
2023/06/01 07:10:40;;;;;;;10.02;6.13;;;;;;;13.13;86.20;102354.75;5053798;28;20098;-37
2023/06/01 07:13:05;;;;;;;;;;;;;;;13.38;86.20;102355.78;5053782;28;20040;-37
2023/06/01 07:15:30;;;;;;;11.10;5.95;;;;;;;13.38;85.45;102352.22;5053308;28;19917;-37
2023/06/01 07:17:56;;;;;;;9.10;5.93;;;;;;;13.61;85.22;102351.72;5053370;28;20421;-37
2023/06/01 07:20:21;;;;;;;9.00;5.50;;;;;;;13.88;84.40;102344.31;5052930;28;20864;-37
2023/06/01 07:22:47;;;;;;;8.13;6.00;;;;;;;13.70;83.63;102325.97;5057717;28;20060;-37
2023/06/01 07:25:13;;;;;;;11.68;5.70;;;;;;;13.95;83.23;102347.81;5057821;28;20025;-37
2023/06/01 07:27:43;;;;;;;10.48;5.70;;;;;;;14.03;81.42;102352.19;5057773;28;20439;-37
2023/06/01 07:30:09;;;;;;;17.30;6.30;;;;;;;13.87;81.57;102334.47;5057376;28;20033;-37
2023/06/01 07:32:35;;;;;;;12.77;6.00;;;;;;;13.86;81.44;102354.56;5057657;28;20078;-37
2023/06/01 07:35:01;;;;;;;;;;;;;;;13.99;81.67;102354.47;5058038;28;20108;-40
2023/06/01 07:37:27;;;;;;;11.07;5.77;;;;;;;14.01;82.46;102343.41;5057033;28;20319;-37
2023/06/01 07:39:53;;;;;;;;;;;;;;;14.23;81.57;102350.16;5057331;28;20056;-38
2023/06/01 07:42:19;;;;;;;9.57;5.20;;;;;;;14.13;81.10;102355.25;5057731;28;19959;-37
2023/06/01 07:44:45;;;;;;;16.20;6.18;;;;;;;13.95;80.76;102349.69;5056836;28;20525;-36
2023/06/01 07:47:11;;;;;;;;;;;;;;;14.34;81.75;102340.47;5056967;28;20059;-37
2023/06/01 07:49:36;;;;;;;14.15;6.85;;;;;;;14.46;80.87;102349.59;5057048;28;19917;-36
2023/06/01 07:52:02;;;;;;;;;;;;;;;14.68;79.91;102353.63;5057211;28;20025;-37
2023/06/01 07:54:27;;;;;;;20.20;6.85;;;;;;;14.59;78.82;102345.97;5056902;28;19917;-36
2023/06/01 07:56:53;;;;;;;;;;;;;;;14.83;79.87;102345.13;5057961;28;20382;-37
2023/06/01 07:59:21;;;;;;;9.70;5.90;;;;;;;14.82;77.20;102350.81;5056596;28;19986;-37
2023/06/01 08:01:49;;;;;;;8.77;5.80;;;;;;;14.80;76.74;102342.03;5057102;28;20033;-36
2023/06/01 08:04:14;;;;;;;12.82;5.80;;;;;;;14.87;77.81;102346.38;5056475;28;20029;-36
2023/06/01 08:06:41;;;;;;;;;;;;;;;15.11;78.13;102349.28;5056975;28;20071;-36
2023/06/01 08:09:06;;;;;;;10.65;5.60;;;;;;;14.93;77.27;102350.94;5056145;28;20387;-37
2023/06/01 08:11:32;;;;;;;10.85;5.63;;;;;;;14.98;77.02;102349.41;5056721;28;20033;-36
2023/06/01 08:13:59;;;;;;;10.43;5.20;;;;;;;15.17;79.28;102335.59;5056556;28;20035;-37
2023/06/01 08:16:26;;;;;;;8.93;5.90;;;;;;;15.25;75.89;102336.38;5056887;28;20025;-37
2023/06/01 08:18:52;;;;;;;21.60;7.20;;;;;;;15.29;74.62;102334.88;5056779;28;20032;-37
2023/06/01 08:21:17;;;;;;;;;;;;;;;15.48;74.88;102338.44;5057161;28;20040;-37
2023/06/01 08:23:43;;;;;;;9.98;5.97;;;;;;;15.38;76.25;102325.34;5055828;28;19913;-37
2023/06/01 08:26:08;;;;;;;;;;;;;;;15.70;75.60;102340.47;5056344;28;20025;-37
2023/06/01 08:28:33;;;;;;;10.32;6.15;;;;;;;15.48;73.63;102325.63;5056079;28;19913;-36
2023/06/01 08:30:59;;;;;;;;;;;;;;;15.84;75.08;102334.88;5056510;28;20549;-36
2023/06/01 08:33:24;;;;;;;9.52;5.65;;;;;;;15.86;73.01;102332.72;5055524;28;19912;-37
2023/06/01 08:35:50;;;;;;;;;;;;;;;16.15;74.30;102329.19;5056433;28;20490;-37
2023/06/01 08:38:15;;;;;;;8.73;5.63;;;;;;;16.16;71.34;102333.59;5056208;28;20007;-36
2023/06/01 08:40:40;;;;;;;;;;;;;;;16.23;71.41;102325.28;5056278;28;20307;-36
2023/06/01 08:43:27;;;;;;;9.63;5.60;;;;;;;16.21;70.77;102336.44;5055815;28;20380;-37
2023/06/01 08:45:58;;;;;;;;;;;;;;;16.50;71.38;102328.44;5057061;28;20378;-37
2023/06/01 08:48:24;;;;;;;12.68;6.25;;;;;;;16.30;68.22;102328.75;5056300;28;19920;-37
2023/06/01 08:50:52;;;;;;;8.40;5.78;;;;;;;16.51;68.41;102319.19;5056239;28;20029;-37
2023/06/01 08:53:21;;;;;;;12.30;6.35;;;;;;;16.67;69.37;102323.94;5055817;28;20040;-37
2023/06/01 08:55:46;;;;;;;10.27;6.15;;;;;;;16.82;67.48;102311.75;5055550;28;20526;-37
2023/06/01 08:58:12;;;;;;;;;;;;;;;17.13;68.83;102316.88;5055986;28;20032;-37
2023/06/01 09:00:38;;;;;;;10.75;6.55;;;;;;;17.01;66.75;102310.56;5055263;28;20289;-37
2023/06/01 09:03:04;;;;;;;8.75;5.57;;;;;;;17.17;66.98;102304.38;5055399;28;20044;-37
2023/06/01 09:05:29;;;;;;;;;;;;;;;17.47;68.29;102308.81;5056701;28;20029;-37
2023/06/01 09:07:55;;;;;;;10.57;5.65;;;;;;;17.35;64.70;102306.13;5055366;28;20268;-37
2023/06/01 09:10:25;;;;;;;;;;;;;;;17.56;66.74;102303.81;5055754;28;20032;-37
2023/06/01 09:12:52;;;;;;;6.75;5.35;;;;;;;17.45;64.57;102309.09;5055455;28;19908;-36
2023/06/01 09:15:18;;;;;;;11.43;5.68;;;;;;;17.54;63.63;102303.25;5055751;28;20424;-36
2023/06/01 09:17:52;;;;;;;8.27;5.80;;;;;;;17.45;63.54;102305.53;5054857;28;20028;-37
2023/06/01 09:20:25;;;;;;;9.48;6.18;;;;;;;17.54;63.30;102297.78;5055101;28;20071;-37
2023/06/01 09:22:51;;;;;;;10.00;6.72;;;;;;;17.45;63.96;102283.66;5054773;28;20029;-37
2023/06/01 09:25:23;;;;;;;7.68;5.93;;;;;;;17.60;64.13;102292.16;5055051;28;20062;-37
2023/06/01 09:27:50;;;;;;;8.38;6.15;;;;;;;17.77;62.71;102295.00;5054629;28;20025;-37
2023/06/01 09:30:18;;;;;;;13.15;6.22;;;;;;;17.91;61.36;102288.16;5054876;28;20561;-37
2023/06/01 09:32:47;;;;;;;9.25;5.55;;;;;;;17.99;62.62;102290.47;5054642;28;20029;-37
2023/06/01 09:35:13;;;;;;;10.07;6.95;;;;;;;17.63;61.10;102275.25;5054796;28;20065;-37
2023/06/01 09:37:38;;;;;;;9.75;5.72;;;;;;;17.86;62.28;102279.84;5054830;28;20029;-37
2023/06/01 09:40:24;;;;;;;11.40;6.13;;;;;;;18.18;62.66;102285.63;5054331;28;20102;-37
2023/06/01 09:42:50;;;;;;;9.23;6.25;;;;;;;18.21;61.01;102274.19;5054174;28;20412;-37
2023/06/01 09:45:22;;;;;;;7.18;5.53;;;;;;;18.36;60.44;102279.09;5054156;28;20108;-37
2023/06/01 09:47:48;;;;;;;9.32;6.05;;;;;;;18.28;60.05;102283.06;5054191;28;20401;-37
2023/06/01 09:50:33;;;;;;;9.70;5.93;;;;;;;18.63;60.88;102275.66;5055088;28;20033;-37
2023/06/01 09:52:59;;;;;;;9.25;5.78;;;;;;;18.68;58.48;102262.03;5055316;28;20087;-37
2023/06/01 09:55:25;;;;;;;10.50;5.95;;;;;;;18.88;58.17;102272.50;5054390;28;20029;-37
2023/06/01 09:57:50;;;;;;;13.32;7.00;;;;;;;18.94;58.01;102277.84;5054692;28;20028;-37
2023/06/01 10:00:24;;;;;;;9.60;5.90;;;;;;;19.15;58.30;102270.72;5054611;28;20119;-37
2023/06/01 10:02:51;;;;;;;10.07;6.00;;;;;;;19.28;57.45;102272.25;5054267;28;20025;-37
2023/06/01 10:05:17;;;;;;;8.98;6.32;;;;;;;19.35;56.50;102267.41;5053882;28;20508;-37
2023/06/01 10:07:44;;;;;;;10.98;6.40;;;;;;;19.47;56.85;102261.75;5054230;28;20047;-37
2023/06/01 10:10:13;;;;;;;11.45;7.78;;;;;;;19.05;58.31;102267.84;5054159;28;20029;-37
2023/06/01 10:12:39;;;;;;;8.63;6.60;;;;;;;19.04;57.11;102250.56;5054392;28;20032;-37
2023/06/01 10:15:05;;;;;;;9.68;6.57;;;;;;;19.14;57.13;102266.31;5054011;28;20032;-37
2023/06/01 10:17:34;;;;;;;9.27;6.45;;;;;;;19.40;57.74;102264.72;5054019;28;20033;-37
2023/06/01 10:20:01;;;;;;;9.43;6.63;;;;;;;19.43;56.79;102256.00;5054126;28;20033;-37
2023/06/01 10:22:28;;;;;;;8.20;6.82;;;;;;;19.46;55.76;102252.72;5054799;28;20021;-37
2023/06/01 10:25:00;;;;;;;12.30;6.82;;;;;;;19.40;56.24;102234.53;5053509;28;20037;-37
2023/06/01 10:28:03;;;;;;;7.78;6.22;;;;;;;19.43;57.14;102249.69;5053846;28;20029;-37
2023/06/01 10:30:28;;;;;;;10.40;6.28;;;;;;;19.58;56.18;102236.13;5050387;28;20041;-37
2023/06/01 10:32:54;;;;;;;11.23;6.35;;;;;;;19.77;56.36;102251.19;5054378;28;20021;-37
2023/06/01 10:35:32;;;;;;;8.30;6.53;;;;;;;19.89;55.03;102250.19;5053841;28;20066;-37
2023/06/01 10:38:06;;;;;;;9.38;6.32;;;;;;;19.90;54.35;102247.19;5053684;28;20039;-37
2023/06/01 10:40:41;;;;;;;10.55;6.43;;;;;;;19.93;54.61;102248.59;5053578;28;20029;-37
2023/06/01 10:43:08;;;;;;;11.68;6.88;;;;;;;19.91;54.39;102248.00;5053965;28;20032;-37
2023/06/01 10:45:33;;;;;;;10.02;6.32;;;;;;;20.02;54.26;102234.13;5053924;28;20025;-37
2023/06/01 10:48:00;;;;;;;9.55;6.50;;;;;;;20.10;53.45;102245.72;5053615;28;20411;-38
2023/06/01 10:50:26;;;;;;;8.02;6.35;;;;;;;20.32;53.42;102243.72;5053308;28;20489;-38
2023/06/01 10:52:55;;;;;;;12.20;6.80;;;;;;;20.57;54.40;102230.19;5053535;28;20064;-37
2023/06/01 10:55:21;;;;;;;9.40;6.30;;;;;;;20.70;52.37;102239.91;5053415;28;20377;-37
2023/06/01 10:57:46;;;;;;;8.93;5.88;;;;;;;20.76;51.35;102238.00;5053716;28;20037;-37
2023/06/01 11:00:28;;;;;;;8.70;5.75;;;;;;;20.68;51.43;102239.31;5053799;28;20049;-37
2023/06/01 11:02:56;;;;;;;8.70;6.40;;;;;;;20.41;53.36;102236.66;5052976;28;20411;-37
2023/06/01 11:05:48;;;;;;;8.52;6.30;;;;;;;20.46;54.22;102231.19;5053395;28;20029;-37
2023/06/01 11:08:19;;;;;;;9.00;6.10;;;;;;;20.38;53.66;102233.59;5053653;28;20416;-37
2023/06/01 11:10:50;;;;;;;6.63;5.63;;;;;;;20.54;52.78;102229.88;5054142;28;20063;-38
2023/06/01 11:13:21;;;;;;;6.57;5.60;;;;;;;20.70;51.86;102222.59;5053310;28;20481;-37
2023/06/01 11:16:07;;;;;;;8.20;5.78;;;;;;;20.81;52.66;102218.78;5053588;28;20046;-37
2023/06/01 11:18:41;;;;;;;7.05;5.47;;;;;;;20.83;51.42;102217.41;5053239;28;20099;-37
2023/06/01 11:21:40;;;;;;;9.27;5.55;;;;;;;20.89;52.44;102217.47;5053736;28;20028;-37
2023/06/01 11:24:17;;;;;;;11.07;6.05;;;;;;;20.88;52.25;102213.88;5052034;28;20112;-37
2023/06/01 11:26:47;;;;;;;7.80;5.00;;;;;;;21.17;51.04;102219.78;5053247;28;20059;-37
2023/06/01 11:29:16;;;;;;;7.20;5.22;;;;;;;21.18;50.98;102220.59;5053201;28;20029;-37
2023/06/01 11:31:47;;;;;;;13.60;5.80;;;;;;;21.24;51.67;102206.63;5053017;28;20033;-37